New Empire, Nevada
Current Conditions -  °F | °C
As of 4:15 AM on Saturday 25 Oct 2014 (Local Time) from KCXP Reporting Station
Clear Clear  
Wind Chill: 61°   Ceiling: Unl
Heat Index: 61°   Visibility: 10mi
Dew Point: 16°   Wind: 0mph
Humidity: 17%   Direction: NA
Pressure: 29.94"   Gusts: NA
Location:  39.1386°N, 119.659°W
Report Text: KCXP 251115Z AUTO 00000KT 10SM CLR 16/M09 A2994 RMK AO2
Loading
Personal Weather Stations






























Interactive Weather Map
Tropical Storm Tracking
New forecast layout! Learn more

10-Day Weather Forecast

Advertisements
Track Severe Weather on mobile